createdAt,value
2023-02-27T00:00:15.286Z,3.22
2023-02-27T00:02:47.471Z,3.05
2023-02-27T00:05:14.797Z,3.47
2023-02-27T00:07:42.105Z,3.88
2023-02-27T00:10:11.660Z,3.50
2023-02-27T00:12:39.068Z,3.80
2023-02-27T00:15:17.906Z,2.95
2023-02-27T00:17:45.603Z,3.97
2023-02-27T00:20:15.155Z,3.60
2023-02-27T00:22:42.878Z,3.38
2023-02-27T00:25:10.514Z,3.45
2023-02-27T00:27:37.682Z,3.45
2023-02-27T00:30:06.608Z,3.05
2023-02-27T00:32:33.644Z,3.45
2023-02-27T00:35:01.458Z,3.50
2023-02-27T00:37:28.298Z,3.30
2023-02-27T00:39:55.196Z,3.85
2023-02-27T00:42:22.226Z,3.40
2023-02-27T00:44:49.125Z,3.80
2023-02-27T00:47:15.987Z,3.55
2023-02-27T00:49:42.855Z,3.85
2023-02-27T00:52:10.785Z,3.50
2023-02-27T00:54:37.682Z,3.45
2023-02-27T00:57:04.729Z,4.05
2023-02-27T00:59:31.617Z,3.50
2023-02-27T01:01:58.563Z,3.40
2023-02-27T01:04:28.167Z,3.88
2023-02-27T01:06:55.061Z,3.40
2023-02-27T01:09:22.199Z,3.88
2023-02-27T01:11:49.136Z,3.63
2023-02-27T01:14:16.065Z,3.30
2023-02-27T01:16:45.636Z,3.70
2023-02-27T01:19:12.579Z,3.58
2023-02-27T01:21:42.029Z,3.13
2023-02-27T01:24:10.629Z,3.90
2023-02-27T01:26:37.573Z,3.63
2023-02-27T01:29:06.435Z,3.75
2023-02-27T01:31:33.853Z,3.80
2023-02-27T01:34:00.854Z,3.25
2023-02-27T01:36:27.941Z,3.60
2023-02-27T01:38:54.851Z,3.20
2023-02-27T01:41:21.755Z,3.72
2023-02-27T01:43:56.238Z,3.60
2023-02-27T01:46:24.407Z,3.78
2023-02-27T01:48:55.597Z,3.03
2023-02-27T01:51:22.590Z,3.40
2023-02-27T01:53:52.341Z,3.25
2023-02-27T01:56:23.548Z,3.00
2023-02-27T01:58:55.189Z,3.22
2023-02-27T02:01:24.354Z,3.38
2023-02-27T02:03:54.628Z,3.45
2023-02-27T02:06:21.996Z,3.22
2023-02-27T02:08:51.454Z,3.35
2023-02-27T02:11:20.796Z,3.20
2023-02-27T02:13:51.201Z,3.67
2023-02-27T02:16:27.210Z,3.65
2023-02-27T02:19:09.236Z,3.80
2023-02-27T02:21:54.957Z,3.47
2023-02-27T02:24:49.117Z,3.40
2023-02-27T02:27:30.822Z,3.17
2023-02-27T02:30:09.683Z,3.40
2023-02-27T02:33:05.931Z,3.30
2023-02-27T02:35:55.359Z,3.58
2023-02-27T02:38:41.296Z,3.05
2023-02-27T02:41:08.182Z,3.08
2023-02-27T02:43:42.549Z,3.00
2023-02-27T02:46:35.195Z,3.40
2023-02-27T02:49:13.872Z,3.33
2023-02-27T02:51:52.636Z,3.67
2023-02-27T02:54:37.834Z,3.75
2023-02-27T02:57:22.393Z,3.63
2023-02-27T02:59:56.047Z,3.50
2023-02-27T03:02:27.871Z,3.25
2023-02-27T03:05:05.002Z,3.60
2023-02-27T03:07:56.775Z,3.45
2023-02-27T03:10:38.130Z,3.60
2023-02-27T03:13:23.752Z,3.10
2023-02-27T03:16:12.394Z,3.60
2023-02-27T03:18:54.289Z,3.42
2023-02-27T03:21:32.288Z,4.60
2023-02-27T03:24:04.780Z,3.28
2023-02-27T03:26:38.040Z,3.40
2023-02-27T03:29:15.566Z,3.92
2023-02-27T03:32:01.979Z,3.55
2023-02-27T03:34:38.684Z,3.60
2023-02-27T03:37:36.074Z,3.70
2023-02-27T03:40:32.636Z,2.83
2023-02-27T03:43:27.648Z,4.22
2023-02-27T03:46:08.551Z,4.47
2023-02-27T03:48:35.859Z,3.50
2023-02-27T03:51:03.192Z,3.75
2023-02-27T03:53:39.951Z,3.40
2023-02-27T03:56:10.033Z,3.22
2023-02-27T03:58:37.038Z,3.45
2023-02-27T04:01:04.607Z,3.92
2023-02-27T04:03:37.112Z,3.40
2023-02-27T04:06:24.668Z,3.50
2023-02-27T04:09:07.109Z,3.80
2023-02-27T04:14:46.361Z,2.90
2023-02-27T04:17:37.879Z,3.53
2023-02-27T04:20:26.436Z,3.83
2023-02-27T04:23:02.446Z,2.97
2023-02-27T04:26:01.936Z,3.58
2023-02-27T04:28:44.958Z,3.90
2023-02-27T04:31:25.330Z,3.33
2023-02-27T04:33:57.313Z,3.45
2023-02-27T04:36:30.803Z,3.67
2023-02-27T04:39:04.202Z,3.92
2023-02-27T04:41:34.048Z,3.83
2023-02-27T04:44:03.214Z,4.40
2023-02-27T04:46:33.421Z,4.22
2023-02-27T04:49:05.553Z,4.07
2023-02-27T04:51:42.814Z,3.40
2023-02-27T04:54:17.958Z,3.28
2023-02-27T04:56:51.522Z,3.88
2023-02-27T04:59:30.759Z,3.58
2023-02-27T05:02:07.847Z,3.42
2023-02-27T05:04:38.815Z,3.55
2023-02-27T05:07:09.417Z,3.33
2023-02-27T05:09:46.384Z,3.58
2023-02-27T05:12:37.651Z,3.38
2023-02-27T05:15:12.169Z,3.00
2023-02-27T05:17:49.100Z,3.10
2023-02-27T05:20:17.054Z,3.92
2023-02-27T05:23:04.773Z,4.00
2023-02-27T05:25:57.848Z,3.47
2023-02-27T05:28:36.897Z,4.00
2023-02-27T05:31:14.795Z,4.10
2023-02-27T05:33:52.072Z,3.67
2023-02-27T05:36:29.848Z,4.03
2023-02-27T05:39:01.000Z,3.80
2023-02-27T05:41:46.529Z,3.70
2023-02-27T05:44:33.825Z,3.78
2023-02-27T05:47:05.569Z,3.03
2023-02-27T05:49:40.996Z,3.70
2023-02-27T05:52:12.842Z,3.40
2023-02-27T05:54:59.617Z,4.05
2023-02-27T05:57:36.648Z,3.60
2023-02-27T06:00:16.238Z,3.75
2023-02-27T06:02:44.825Z,4.13
2023-02-27T06:05:18.106Z,3.65
2023-02-27T06:07:45.175Z,3.72
2023-02-27T06:10:15.932Z,4.15
2023-02-27T06:12:42.892Z,4.60
2023-02-27T06:15:10.356Z,4.35
2023-02-27T06:17:37.220Z,3.95
2023-02-27T06:20:04.319Z,4.50
2023-02-27T06:22:31.211Z,3.55
2023-02-27T06:24:58.225Z,4.30
2023-02-27T06:27:26.845Z,4.03
2023-02-27T06:29:54.138Z,4.10
2023-02-27T06:32:22.074Z,3.35
2023-02-27T06:34:48.912Z,3.28
2023-02-27T06:37:15.760Z,3.83
2023-02-27T06:39:42.606Z,3.53
2023-02-27T06:42:09.575Z,4.38
2023-02-27T06:44:36.482Z,3.90
2023-02-27T06:47:03.342Z,4.22
2023-02-27T06:49:30.265Z,3.30
2023-02-27T06:51:57.160Z,3.20
2023-02-27T06:54:24.078Z,3.67
2023-02-27T06:56:51.924Z,3.58
2023-02-27T06:59:18.847Z,4.18
2023-02-27T07:01:45.765Z,3.72
2023-02-27T07:04:14.451Z,3.85
2023-02-27T07:07:35.932Z,3.50
2023-02-27T07:09:28.684Z,3.88
2023-02-27T07:11:55.575Z,4.03
2023-02-27T07:14:22.799Z,4.05
2023-02-27T07:16:53.922Z,3.25
2023-02-27T07:19:24.449Z,3.28
2023-02-27T07:21:51.323Z,2.80
2023-02-27T07:24:18.295Z,2.95
2023-02-27T07:26:45.300Z,2.45
2023-02-27T07:29:14.724Z,2.90
2023-02-27T07:31:41.852Z,3.75
2023-02-27T07:34:11.832Z,2.95
2023-02-27T07:36:39.443Z,3.00
2023-02-27T07:39:08.690Z,2.95
2023-02-27T07:41:35.560Z,2.80
2023-02-27T07:44:06.931Z,2.65
2023-02-27T07:46:33.961Z,2.38
2023-02-27T07:49:00.866Z,2.25
2023-02-27T07:51:28.232Z,3.20
2023-02-27T07:53:58.329Z,3.00
2023-02-27T07:56:27.877Z,3.13
2023-02-27T07:58:55.116Z,3.28
2023-02-27T08:01:22.341Z,3.70
2023-02-27T08:03:49.230Z,3.08
2023-02-27T08:06:16.080Z,4.03
2023-02-27T08:08:43.058Z,2.92
2023-02-27T08:11:10.653Z,2.95
2023-02-27T08:16:24.539Z,2.70
2023-02-27T08:18:51.509Z,4.63
2023-02-27T08:21:18.441Z,3.63
2023-02-27T08:23:45.382Z,2.92
2023-02-27T08:26:12.334Z,3.42
2023-02-27T08:28:39.679Z,3.42
2023-02-27T08:31:07.012Z,2.50
2023-02-27T08:33:34.509Z,3.00
2023-02-27T08:36:01.439Z,2.22
2023-02-27T08:38:28.387Z,2.55
2023-02-27T08:40:55.350Z,2.55
2023-02-27T08:43:22.977Z,2.10
2023-02-27T08:45:50.793Z,2.60
2023-02-27T08:48:18.558Z,2.80
2023-02-27T08:50:46.811Z,3.20
2023-02-27T08:53:14.491Z,2.90
2023-02-27T08:55:42.535Z,2.78
2023-02-27T08:58:10.336Z,2.80
2023-02-27T09:00:37.270Z,3.38
2023-02-27T09:03:04.242Z,3.67
2023-02-27T09:05:35.234Z,2.85
2023-02-27T09:08:02.774Z,2.80
2023-02-27T09:10:29.958Z,2.13
2023-02-27T09:12:57.068Z,2.50
2023-02-27T09:15:24.077Z,2.03
2023-02-27T09:17:51.135Z,2.30
2023-02-27T09:20:18.770Z,2.85
2023-02-27T09:22:45.750Z,2.17
2023-02-27T09:25:12.639Z,2.60
2023-02-27T09:27:39.562Z,2.45
2023-02-27T09:30:07.124Z,1.88
2023-02-27T09:32:34.042Z,1.80
2023-02-27T09:35:01.110Z,2.00
2023-02-27T09:37:28.017Z,1.90
2023-02-27T09:39:54.954Z,2.00
2023-02-27T09:42:26.138Z,1.90
2023-02-27T09:45:01.028Z,1.77
2023-02-27T09:47:37.210Z,1.52
2023-02-27T09:50:06.355Z,1.73
2023-02-27T09:52:36.411Z,1.90
2023-02-27T09:55:11.532Z,1.33
2023-02-27T09:57:57.000Z,1.63
2023-02-27T10:00:26.694Z,1.13
2023-02-27T10:03:01.354Z,1.30
2023-02-27T10:05:45.227Z,1.33
2023-02-27T10:08:26.314Z,1.10
2023-02-27T10:11:03.592Z,0.90
2023-02-27T10:13:36.929Z,1.00
2023-02-27T10:16:04.979Z,1.05
2023-02-27T10:18:54.632Z,1.00
2023-02-27T10:21:31.418Z,0.98
2023-02-27T10:24:23.767Z,1.23
2023-02-27T10:26:53.350Z,1.00
2023-02-27T10:29:42.098Z,0.80
2023-02-27T10:32:13.876Z,1.05
2023-02-27T10:34:43.587Z,1.13
2023-02-27T10:37:14.860Z,1.08
2023-02-27T10:39:48.485Z,1.05
2023-02-27T10:42:17.182Z,1.05
2023-02-27T10:44:44.524Z,0.70
2023-02-27T10:47:16.073Z,0.80
2023-02-27T10:49:44.026Z,0.85
2023-02-27T10:52:13.768Z,0.70
2023-02-27T10:54:41.909Z,1.00
2023-02-27T10:57:23.273Z,1.10
2023-02-27T10:59:54.308Z,0.88
2023-02-27T11:02:40.423Z,0.80
2023-02-27T11:05:19.279Z,0.93
2023-02-27T11:07:46.216Z,0.80
2023-02-27T11:10:18.287Z,1.05
2023-02-27T11:13:25.872Z,0.90
2023-02-27T11:16:05.580Z,1.10
2023-02-27T11:18:33.286Z,0.80
2023-02-27T11:21:27.071Z,0.60
2023-02-27T11:23:58.407Z,0.70
2023-02-27T11:26:27.690Z,0.68
2023-02-27T11:29:15.112Z,0.93
2023-02-27T11:31:53.138Z,0.50
2023-02-27T11:34:32.241Z,0.70
2023-02-27T11:37:35.413Z,0.77
2023-02-27T11:40:12.683Z,0.80
2023-02-27T11:42:56.036Z,0.60
2023-02-27T11:46:10.214Z,0.50
2023-02-27T11:48:23.632Z,0.95
2023-02-27T11:51:15.910Z,0.60
2023-02-27T11:53:49.032Z,0.80
2023-02-27T11:56:26.652Z,0.70
2023-02-27T11:59:02.706Z,0.60
2023-02-27T12:01:43.045Z,0.65
2023-02-27T12:04:25.714Z,0.75
2023-02-27T12:07:01.400Z,0.65
2023-02-27T12:09:53.115Z,0.60
2023-02-27T12:12:31.446Z,0.60
2023-02-27T12:15:17.328Z,0.50
2023-02-27T12:18:18.266Z,0.55
2023-02-27T12:21:09.849Z,0.77
2023-02-27T12:23:50.983Z,0.50
2023-02-27T12:26:24.830Z,0.50
2023-02-27T12:29:09.360Z,0.70
2023-02-27T12:32:02.273Z,0.40
2023-02-27T12:34:35.010Z,0.60
2023-02-27T12:37:13.122Z,0.82
2023-02-27T12:39:43.256Z,0.50
2023-02-27T12:42:34.717Z,0.60
2023-02-27T12:45:07.494Z,0.90
2023-02-27T12:47:39.769Z,0.70
2023-02-27T12:53:05.408Z,0.80
2023-02-27T12:55:39.593Z,1.10
2023-02-27T12:58:06.570Z,0.77
2023-02-27T13:00:51.656Z,0.80
2023-02-27T13:03:45.538Z,0.57
2023-02-27T13:06:40.855Z,1.08
2023-02-27T13:09:12.172Z,1.05
2023-02-27T13:12:00.818Z,1.40
2023-02-27T13:14:34.422Z,0.88
2023-02-27T13:17:10.502Z,1.38
2023-02-27T13:20:02.703Z,0.77
2023-02-27T13:22:52.237Z,0.70
2023-02-27T13:25:19.950Z,0.98
2023-02-27T13:28:00.353Z,1.08
2023-02-27T13:30:35.755Z,0.60
2023-02-27T13:33:25.618Z,1.02
2023-02-27T13:36:23.221Z,0.88
2023-02-27T13:38:54.223Z,1.05
2023-02-27T13:41:21.102Z,0.95
2023-02-27T13:43:53.316Z,1.10
2023-02-27T13:46:29.400Z,1.00
2023-02-27T13:48:56.273Z,1.00
2023-02-27T13:51:35.417Z,0.98
2023-02-27T13:54:14.351Z,1.10
2023-02-27T13:56:44.048Z,1.02
2023-02-27T13:59:22.201Z,1.08
2023-02-27T14:01:56.002Z,1.00
2023-02-27T14:04:27.686Z,1.00
2023-02-27T14:07:01.249Z,1.05
2023-02-27T14:09:35.910Z,0.90
2023-02-27T14:12:06.219Z,0.95
2023-02-27T14:14:50.149Z,0.73
2023-02-27T14:17:37.300Z,0.70
2023-02-27T14:20:27.045Z,1.00
2023-02-27T14:23:15.764Z,1.10
2023-02-27T14:26:20.517Z,1.00
2023-02-27T14:28:55.755Z,1.20
2023-02-27T14:31:24.668Z,1.02
2023-02-27T14:33:55.265Z,1.27
2023-02-27T14:36:27.942Z,1.13
2023-02-27T14:38:57.838Z,1.02
2023-02-27T14:41:33.823Z,1.10
2023-02-27T14:44:01.207Z,1.23
2023-02-27T14:46:39.825Z,1.08
2023-02-27T14:49:35.102Z,1.13
2023-02-27T14:52:41.883Z,1.40
2023-02-27T14:55:22.961Z,1.38
2023-02-27T14:58:08.066Z,1.00
2023-02-27T15:00:42.562Z,0.95
2023-02-27T15:03:22.609Z,1.00
2023-02-27T15:05:57.623Z,1.00
2023-02-27T15:08:28.911Z,1.00
2023-02-27T15:10:57.404Z,1.00
2023-02-27T15:13:37.708Z,1.15
2023-02-27T15:16:23.541Z,1.30
2023-02-27T15:18:56.402Z,1.05
2023-02-27T15:21:25.430Z,1.30
2023-02-27T15:23:57.530Z,1.00
2023-02-27T15:26:25.793Z,1.17
2023-02-27T15:28:52.894Z,1.02
2023-02-27T15:31:27.069Z,0.88
2023-02-27T15:33:55.383Z,1.10
2023-02-27T15:36:46.780Z,1.00
2023-02-27T15:39:18.793Z,1.20
2023-02-27T15:41:49.263Z,1.17
2023-02-27T15:44:18.593Z,0.98
2023-02-27T15:46:47.009Z,1.30
2023-02-27T15:49:17.869Z,1.20
2023-02-27T15:51:48.933Z,1.75
2023-02-27T15:54:15.925Z,1.02
2023-02-27T15:56:43.149Z,1.10
2023-02-27T15:59:16.589Z,0.98
2023-02-27T16:01:45.385Z,1.00
2023-02-27T16:04:24.355Z,1.13
2023-02-27T16:07:02.941Z,1.10
2023-02-27T16:09:33.550Z,0.95
2023-02-27T16:12:33.146Z,1.00
2023-02-27T16:15:30.210Z,1.10
2023-02-27T16:18:07.827Z,1.13
2023-02-27T16:20:48.485Z,1.00
2023-02-27T16:23:29.650Z,0.90
2023-02-27T16:26:20.787Z,1.10
2023-02-27T16:29:05.362Z,1.67
2023-02-27T16:31:40.576Z,1.15
2023-02-27T16:34:13.643Z,0.98
2023-02-27T16:36:43.108Z,0.95
2023-02-27T16:39:13.380Z,1.00
2023-02-27T16:41:40.299Z,1.00
2023-02-27T16:44:07.164Z,1.17
2023-02-27T16:46:34.028Z,1.00
2023-02-27T16:49:14.222Z,1.00
2023-02-27T16:51:45.900Z,1.10
2023-02-27T16:54:13.714Z,1.40
2023-02-27T16:56:41.037Z,1.30
2023-02-27T16:59:17.958Z,1.05
2023-02-27T17:01:44.839Z,1.17
2023-02-27T17:04:24.937Z,1.50
2023-02-27T17:06:53.170Z,1.10
2023-02-27T17:09:20.409Z,1.20
2023-02-27T17:11:47.372Z,0.90
2023-02-27T17:14:14.297Z,1.10
2023-02-27T17:16:41.508Z,0.93
2023-02-27T17:19:08.423Z,0.80
2023-02-27T17:21:35.332Z,1.30
2023-02-27T17:24:02.729Z,1.25
2023-02-27T17:26:31.104Z,1.30
2023-02-27T17:28:58.588Z,1.17
2023-02-27T17:31:26.066Z,1.30
2023-02-27T17:33:53.845Z,1.10
2023-02-27T17:36:22.193Z,1.23
2023-02-27T17:38:54.939Z,1.48
2023-02-27T17:41:21.946Z,1.17
2023-02-27T17:43:56.592Z,1.50
2023-02-27T17:46:25.285Z,1.40
2023-02-27T17:48:52.553Z,1.23
2023-02-27T17:51:19.861Z,1.50
2023-02-27T17:53:46.776Z,1.67
2023-02-27T17:56:14.487Z,1.40
2023-02-27T17:58:45.304Z,1.40
2023-02-27T18:01:15.317Z,1.42
2023-02-27T18:03:44.186Z,1.40
2023-02-27T18:06:11.178Z,1.60
2023-02-27T18:08:38.153Z,1.38
2023-02-27T18:11:10.651Z,1.50
2023-02-27T18:13:37.962Z,1.70
2023-02-27T18:16:05.605Z,1.70
2023-02-27T18:18:34.528Z,1.38
2023-02-27T18:21:07.067Z,1.60
2023-02-27T18:23:34.068Z,1.60
2023-02-27T18:26:01.011Z,1.55
2023-02-27T18:28:28.569Z,1.52
2023-02-27T18:30:55.589Z,1.42
2023-02-27T18:33:23.105Z,1.80
2023-02-27T18:35:50.417Z,1.48
2023-02-27T18:38:17.412Z,1.80
2023-02-27T18:40:44.307Z,2.08
2023-02-27T18:43:13.803Z,1.60
2023-02-27T18:45:41.482Z,2.10
2023-02-27T18:48:08.574Z,1.67
2023-02-27T18:50:35.730Z,1.83
2023-02-27T18:53:02.682Z,2.10
2023-02-27T18:55:29.573Z,1.63
2023-02-27T18:57:56.514Z,1.77
2023-02-27T19:00:24.311Z,1.75
2023-02-27T19:02:51.607Z,2.65
2023-02-27T19:05:18.975Z,2.10
2023-02-27T19:07:46.189Z,1.95
2023-02-27T19:10:13.446Z,2.13
2023-02-27T19:12:40.587Z,2.28
2023-02-27T19:15:08.180Z,2.10
2023-02-27T19:17:35.139Z,2.17
2023-02-27T19:20:02.113Z,3.08
2023-02-27T19:22:30.382Z,2.58
2023-02-27T19:24:57.571Z,2.63
2023-02-27T19:27:24.836Z,2.60
2023-02-27T19:29:51.828Z,2.28
2023-02-27T19:32:18.918Z,2.90
2023-02-27T19:34:45.865Z,2.63
2023-02-27T19:37:12.841Z,2.45
2023-02-27T19:39:39.750Z,2.30
2023-02-27T19:42:06.575Z,2.45
2023-02-27T19:44:33.450Z,2.40
2023-02-27T19:47:00.534Z,2.47
2023-02-27T19:49:27.534Z,2.13
2023-02-27T19:51:54.405Z,1.92
2023-02-27T19:54:21.384Z,2.30
2023-02-27T19:56:48.285Z,1.70
2023-02-27T19:59:15.236Z,1.70
2023-02-27T20:01:42.227Z,1.63
2023-02-27T20:04:11.077Z,1.75
2023-02-27T20:06:42.008Z,1.77
2023-02-27T20:09:14.824Z,2.10
2023-02-27T20:11:45.282Z,1.70
2023-02-27T20:14:14.050Z,2.13
2023-02-27T20:16:41.597Z,1.95
2023-02-27T20:19:15.298Z,2.00
2023-02-27T20:21:42.240Z,1.65
2023-02-27T20:24:10.446Z,1.83
2023-02-27T20:26:40.777Z,1.88
2023-02-27T20:29:23.281Z,2.08
2023-02-27T20:34:24.725Z,2.08
2023-02-27T20:36:52.870Z,2.05
2023-02-27T20:39:21.044Z,1.80
2023-02-27T20:41:48.437Z,1.73
2023-02-27T20:44:15.408Z,2.20
2023-02-27T20:46:43.728Z,2.55
2023-02-27T20:49:12.719Z,2.28
2023-02-27T20:51:40.131Z,1.88
2023-02-27T20:54:09.755Z,2.10
2023-02-27T20:56:41.182Z,1.55
2023-02-27T20:59:12.949Z,2.08
2023-02-27T21:01:40.263Z,1.98
2023-02-27T21:04:07.341Z,2.25
2023-02-27T21:06:34.941Z,1.52
2023-02-27T21:09:05.476Z,2.00
2023-02-27T21:11:33.306Z,1.70
2023-02-27T21:14:09.214Z,1.80
2023-02-27T21:16:36.873Z,1.83
2023-02-27T21:19:04.208Z,1.80
2023-02-27T21:21:33.596Z,2.15
2023-02-27T21:24:01.046Z,1.83
2023-02-27T21:26:30.364Z,1.85
2023-02-27T21:29:03.750Z,1.88
2023-02-27T21:31:32.958Z,2.10
2023-02-27T21:34:01.844Z,1.88
2023-02-27T21:36:32.088Z,2.13
2023-02-27T21:39:11.622Z,2.08
2023-02-27T21:41:39.123Z,2.20
2023-02-27T21:44:08.286Z,2.22
2023-02-27T21:46:35.953Z,2.10
2023-02-27T21:49:03.812Z,2.00
2023-02-27T21:51:40.032Z,2.35
2023-02-27T21:54:10.379Z,2.60
2023-02-27T21:56:38.285Z,2.03
2023-02-27T21:59:05.382Z,1.90
2023-02-27T22:01:32.935Z,2.35
2023-02-27T22:04:01.536Z,2.22
2023-02-27T22:06:32.020Z,2.80
2023-02-27T22:09:02.560Z,2.33
2023-02-27T22:11:29.824Z,2.80
2023-02-27T22:13:57.214Z,2.78
2023-02-27T22:16:24.594Z,2.50
2023-02-27T22:18:51.800Z,2.22
2023-02-27T22:21:22.614Z,3.08
2023-02-27T22:23:50.098Z,2.50
2023-02-27T22:26:21.664Z,2.50
2023-02-27T22:28:48.626Z,2.65
2023-02-27T22:31:16.890Z,3.33
2023-02-27T22:33:45.405Z,2.72
2023-02-27T22:36:15.487Z,2.38
2023-02-27T22:38:42.897Z,3.05
2023-02-27T22:41:13.066Z,2.83
2023-02-27T22:43:40.631Z,3.00
2023-02-27T22:46:08.860Z,2.70
2023-02-27T22:48:36.220Z,2.70
2023-02-27T22:51:07.307Z,2.78
2023-02-27T22:53:38.924Z,3.25
2023-02-27T22:56:11.805Z,3.35
2023-02-27T22:58:39.801Z,3.00
2023-02-27T23:01:14.885Z,3.00
2023-02-27T23:03:42.882Z,3.33
2023-02-27T23:06:13.482Z,3.35
2023-02-27T23:08:40.768Z,3.00
2023-02-27T23:11:08.122Z,3.17
2023-02-27T23:13:35.108Z,2.83
2023-02-27T23:16:03.431Z,3.20
2023-02-27T23:18:30.321Z,3.55
2023-02-27T23:20:57.161Z,2.85
2023-02-27T23:23:24.087Z,2.97
2023-02-27T23:25:50.963Z,3.50
2023-02-27T23:28:17.905Z,3.65
2023-02-27T23:30:44.728Z,3.75
2023-02-27T23:33:11.769Z,3.58
2023-02-27T23:35:38.666Z,3.63
2023-02-27T23:38:05.682Z,3.80
2023-02-27T23:40:32.750Z,3.30
2023-02-27T23:42:59.620Z,3.05
2023-02-27T23:45:26.590Z,2.97
2023-02-27T23:47:56.218Z,4.07
2023-02-27T23:50:26.113Z,3.67
2023-02-27T23:52:55.199Z,3.30
2023-02-27T23:55:22.364Z,2.70
2023-02-27T23:57:57.310Z,3.47
